VAAU

Details ICAO VAAU (IXU)
Name AURANGABAD
Region India
Timezone Asia/Kolkata (UTC+5.5)
Plans Departing 17
Arriving 25
Stats Elevation 1,911 ft / 582 m (AMSL)
Location 19.862700° 75.398100°
Runways 1
Magnetic Variation 0.045° W
Sunrise 2019-06-20 00:21:10 UTC / 2019-06-20 05:51:10 Local
Sunset 2019-06-20 13:41:03 UTC / 2019-06-20 19:11:03 Local
Advertisement - Login to hide

Runways

ID Width Length Bearing (true/mag) Surface Threshold Overrun Markings Lighting
09 148 ft / 45 m 7,703 ft / 2,348 m 87.94° / 87.98° ASPHALT 0 ft / 0 m 190 ft / 58 m APP EDGE THRESHOLD
27 148 ft / 45 m 7,703 ft / 2,348 m 267.94° / 267.99° ASPHALT 0 ft / 0 m 200 ft / 61 m PREC-APP EDGE THRESHOLD

Approach Navaids

Runway Type Ident Frequency Range Bearing (true/mag) Slope Elevation
27 GS AUR 110.10 MHz 10 nm / 19 km 268.88° / 268.92° 3.00° 1,911 ft / 582 m (AMSL)
27 DME AUR 110.10 MHz 18 nm / 33 km - - 1,857 ft / 566 m (AMSL)
27 LOC-ILS AUR 110.10 MHz 18 nm / 33 km 269.66° / 269.71° - 1,911 ft / 582 m (AMSL)

Map

Weather


0- 5 10 15 20 25 30 35+ Temperature / °C

Clouds and Precipitation
Forecast for 2019-06-12 12:00 UTC. Updated 8 days ago

Ground ~20,000 ft ~40,000 ft Winds

METAR

VAAU 200800Z 27008KT 6000 SCT020 SCT025 BKN100 35/19 Q1007 NOSIG

TAF

Not found

Frequencies

Tower 122.30 MHz
Approach 122.30 MHz
Recorded 127.00 MHz ATIS
Warning: Do not use this data for real-world aviation or navigation. No guarantee of current accuracy is given.